createdAt,value
2023-05-15T00:00:45.484Z,4.4
2023-05-15T00:01:46.078Z,4.3
2023-05-15T00:02:46.771Z,4.5
2023-05-15T00:03:47.322Z,4.3
2023-05-15T00:04:47.963Z,4.4
2023-05-15T00:05:48.507Z,4.7
2023-05-15T00:06:49.129Z,5.0
2023-05-15T00:07:49.731Z,4.3
2023-05-15T00:08:50.329Z,4.3
2023-05-15T00:09:50.928Z,4.3
2023-05-15T00:11:00.797Z,4.2
2023-05-15T00:11:53.107Z,4.1
2023-05-15T00:12:53.712Z,4.1
2023-05-15T00:13:54.311Z,3.8
2023-05-15T00:14:54.895Z,4.2
2023-05-15T00:15:55.582Z,4.0
2023-05-15T00:16:56.104Z,3.9
2023-05-15T00:17:56.710Z,4.8
2023-05-15T00:18:57.344Z,4.5
2023-05-15T00:19:57.896Z,4.0
2023-05-15T00:20:58.494Z,4.4
2023-05-15T00:21:59.079Z,4.0
2023-05-15T00:22:59.690Z,4.4
2023-05-15T00:24:00.287Z,4.0
2023-05-15T00:25:00.884Z,4.4
2023-05-15T00:26:01.489Z,4.1
2023-05-15T00:27:02.091Z,4.2
2023-05-15T00:28:02.694Z,4.3
2023-05-15T00:29:03.306Z,4.3
2023-05-15T00:30:03.910Z,4.4
2023-05-15T00:31:04.550Z,3.8
2023-05-15T00:32:05.116Z,4.4
2023-05-15T00:33:05.723Z,3.6
2023-05-15T00:34:06.310Z,3.7
2023-05-15T00:35:06.907Z,3.9
2023-05-15T00:36:07.528Z,3.7
2023-05-15T00:37:08.119Z,4.2
2023-05-15T00:38:08.711Z,4.4
2023-05-15T00:39:09.311Z,4.0
2023-05-15T00:40:09.906Z,4.3
2023-05-15T00:41:10.502Z,4.1
2023-05-15T00:42:11.105Z,4.8
2023-05-15T00:43:11.694Z,5.3
2023-05-15T00:44:12.291Z,4.5
2023-05-15T00:45:12.885Z,4.3
2023-05-15T00:46:13.500Z,4.0
2023-05-15T00:47:14.141Z,3.8
2023-05-15T00:48:14.705Z,4.3
2023-05-15T00:49:15.303Z,4.2
2023-05-15T00:50:15.894Z,4.5
2023-05-15T00:51:16.493Z,4.3
2023-05-15T00:52:17.089Z,4.4
2023-05-15T00:53:17.698Z,4.6
2023-05-15T00:54:18.331Z,4.2
2023-05-15T00:55:18.887Z,4.5
2023-05-15T00:56:19.482Z,4.5
2023-05-15T00:57:20.098Z,4.3
2023-05-15T00:58:20.690Z,4.1
2023-05-15T00:59:21.285Z,4.3
2023-05-15T01:00:21.878Z,4.0
2023-05-15T01:01:22.541Z,4.9
2023-05-15T01:02:23.147Z,4.7
2023-05-15T01:03:23.848Z,4.5
2023-05-15T01:04:24.364Z,5.2
2023-05-15T01:05:25.200Z,4.7
2023-05-15T01:06:25.879Z,5.5
2023-05-15T01:07:26.473Z,5.5
2023-05-15T01:08:27.068Z,5.1
2023-05-15T01:09:27.672Z,5.6
2023-05-15T01:10:28.257Z,6.4
2023-05-15T01:11:28.863Z,6.0
2023-05-15T01:12:29.477Z,6.6
2023-05-15T01:13:30.064Z,5.9
2023-05-15T01:14:30.655Z,6.5
2023-05-15T01:15:31.249Z,6.4
2023-05-15T01:16:31.847Z,6.5
2023-05-15T01:17:32.513Z,6.9
2023-05-15T01:18:33.329Z,6.6
2023-05-15T01:19:34.194Z,6.8
2023-05-15T01:20:34.793Z,7.8
2023-05-15T01:21:35.391Z,7.5
2023-05-15T01:22:35.990Z,7.8
2023-05-15T01:23:36.588Z,7.0
2023-05-15T01:24:37.176Z,7.9
2023-05-15T01:25:37.774Z,7.8
2023-05-15T01:26:38.371Z,7.8
2023-05-15T01:27:38.966Z,6.8
2023-05-15T01:28:39.564Z,7.3
2023-05-15T01:29:40.156Z,7.5
2023-05-15T01:30:40.771Z,7.2
2023-05-15T01:31:41.429Z,7.4
2023-05-15T01:32:42.053Z,7.5
2023-05-15T01:33:42.616Z,7.4
2023-05-15T01:34:43.194Z,7.0
2023-05-15T01:35:43.800Z,7.5
2023-05-15T01:36:44.390Z,7.6
2023-05-15T01:37:44.980Z,7.0
2023-05-15T01:38:45.599Z,7.5
2023-05-15T01:39:46.189Z,7.7
2023-05-15T01:40:46.789Z,7.8
2023-05-15T01:41:47.378Z,7.4
2023-05-15T01:42:47.996Z,7.5
2023-05-15T01:43:48.588Z,7.5
2023-05-15T01:44:49.183Z,7.8
2023-05-15T01:45:49.786Z,8.1
2023-05-15T01:46:50.464Z,8.4
2023-05-15T01:47:51.071Z,7.3
2023-05-15T01:48:51.654Z,7.5
2023-05-15T01:49:52.265Z,7.6
2023-05-15T01:50:52.863Z,7.7
2023-05-15T01:51:53.461Z,7.6
2023-05-15T01:52:54.062Z,7.0
2023-05-15T01:53:54.652Z,7.9
2023-05-15T01:54:55.242Z,8.0
2023-05-15T01:55:55.842Z,7.1
2023-05-15T01:56:56.437Z,7.6
2023-05-15T01:57:57.037Z,6.8
2023-05-15T01:58:57.653Z,7.1
2023-05-15T01:59:58.253Z,7.9
2023-05-15T02:00:58.848Z,8.1
2023-05-15T02:01:59.594Z,7.8
2023-05-15T02:03:00.164Z,8.5
2023-05-15T02:04:00.826Z,8.2
2023-05-15T02:05:01.375Z,8.2
2023-05-15T02:06:01.976Z,7.8
2023-05-15T02:07:02.586Z,7.9
2023-05-15T02:08:03.189Z,7.1
2023-05-15T02:09:03.787Z,7.9
2023-05-15T02:10:04.382Z,7.9
2023-05-15T02:11:04.999Z,7.5
2023-05-15T02:12:05.594Z,7.9
2023-05-15T02:13:06.186Z,6.8
2023-05-15T02:14:06.794Z,7.6
2023-05-15T02:15:07.392Z,7.5
2023-05-15T02:16:08.056Z,8.0
2023-05-15T02:17:08.602Z,8.1
2023-05-15T02:18:09.220Z,10.5
2023-05-15T02:19:10.073Z,9.4
2023-05-15T02:20:10.420Z,8.2
2023-05-15T02:21:11.018Z,8.5
2023-05-15T02:22:11.615Z,7.9
2023-05-15T02:23:12.208Z,8.0
2023-05-15T02:24:12.804Z,8.1
2023-05-15T02:25:13.417Z,8.0
2023-05-15T02:26:13.992Z,8.4
2023-05-15T02:27:14.589Z,8.2
2023-05-15T02:28:15.186Z,8.1
2023-05-15T02:29:15.778Z,8.0
2023-05-15T02:30:16.375Z,8.1
2023-05-15T02:31:17.012Z,8.1
2023-05-15T02:32:17.601Z,8.1
2023-05-15T02:33:18.174Z,9.0
2023-05-15T02:34:18.785Z,12.2
2023-05-15T02:35:19.380Z,8.5
2023-05-15T02:36:19.977Z,8.9
2023-05-15T02:37:20.572Z,7.9
2023-05-15T02:38:21.167Z,8.0
2023-05-15T02:39:21.759Z,8.6
2023-05-15T02:40:22.357Z,8.5
2023-05-15T02:41:22.980Z,7.4
2023-05-15T02:42:23.549Z,8.3
2023-05-15T02:43:24.140Z,7.6
2023-05-15T02:44:24.734Z,8.3
2023-05-15T02:45:25.511Z,7.6
2023-05-15T02:46:26.371Z,7.8
2023-05-15T02:47:26.968Z,8.4
2023-05-15T02:48:27.542Z,8.9
2023-05-15T02:49:28.165Z,8.6
2023-05-15T02:50:28.750Z,8.4
2023-05-15T02:51:29.368Z,8.5
2023-05-15T02:52:29.964Z,8.2
2023-05-15T02:53:30.562Z,7.8
2023-05-15T02:54:31.159Z,8.4
2023-05-15T02:55:31.797Z,8.4
2023-05-15T02:56:32.402Z,8.4
2023-05-15T02:57:32.984Z,8.7
2023-05-15T02:58:33.604Z,8.8
2023-05-15T02:59:34.193Z,8.6
2023-05-15T03:00:34.795Z,8.8
2023-05-15T03:01:35.494Z,8.8
2023-05-15T03:02:36.030Z,8.9
2023-05-15T03:03:36.643Z,9.3
2023-05-15T03:04:37.340Z,8.9
2023-05-15T03:05:37.945Z,9.3
2023-05-15T03:06:38.544Z,8.6
2023-05-15T03:07:39.140Z,8.6
2023-05-15T03:08:39.743Z,8.6
2023-05-15T03:09:40.335Z,8.1
2023-05-15T03:10:40.931Z,8.1
2023-05-15T03:11:41.527Z,8.6
2023-05-15T03:12:42.120Z,8.3
2023-05-15T03:13:42.742Z,8.9
2023-05-15T03:14:43.333Z,8.3
2023-05-15T03:15:43.954Z,9.0
2023-05-15T03:16:44.563Z,7.3
2023-05-15T03:17:45.170Z,8.4
2023-05-15T03:18:45.773Z,7.4
2023-05-15T03:19:46.347Z,8.2
2023-05-15T03:20:46.948Z,8.4
2023-05-15T03:21:47.542Z,8.5
2023-05-15T03:22:48.138Z,8.6
2023-05-15T03:23:48.755Z,7.7
2023-05-15T03:24:49.351Z,7.9
2023-05-15T03:25:49.952Z,8.2
2023-05-15T03:26:50.557Z,8.6
2023-05-15T03:27:51.147Z,8.5
2023-05-15T03:28:51.766Z,8.7
2023-05-15T03:29:52.368Z,9.1
2023-05-15T03:30:52.991Z,9.1
2023-05-15T03:31:53.734Z,9.1
2023-05-15T03:32:54.459Z,9.1
2023-05-15T03:33:55.023Z,8.3
2023-05-15T03:34:55.617Z,8.4
2023-05-15T03:35:56.218Z,8.3
2023-05-15T03:36:56.827Z,7.8
2023-05-15T03:37:57.413Z,7.9
2023-05-15T03:38:58.024Z,8.3
2023-05-15T03:39:58.624Z,8.0
2023-05-15T03:40:59.204Z,8.3
2023-05-15T03:41:59.822Z,7.8
2023-05-15T03:43:00.419Z,7.7
2023-05-15T03:44:01.022Z,8.0
2023-05-15T03:45:01.640Z,8.6
2023-05-15T03:46:02.268Z,8.3
2023-05-15T03:47:02.924Z,8.2
2023-05-15T03:48:03.509Z,7.5
2023-05-15T03:49:04.120Z,7.8
2023-05-15T03:50:04.747Z,7.1
2023-05-15T03:51:05.340Z,7.8
2023-05-15T03:52:05.959Z,7.8
2023-05-15T03:53:06.563Z,8.3
2023-05-15T03:54:07.156Z,8.0
2023-05-15T03:55:07.758Z,7.8
2023-05-15T03:56:08.365Z,8.3
2023-05-15T03:57:08.994Z,8.4
2023-05-15T03:58:09.592Z,8.8
2023-05-15T03:59:10.195Z,9.0
2023-05-15T04:00:10.836Z,8.6
2023-05-15T04:01:11.394Z,8.5
2023-05-15T04:02:12.062Z,8.3
2023-05-15T04:03:12.846Z,8.3
2023-05-15T04:04:13.542Z,8.4
2023-05-15T04:05:14.211Z,8.6
2023-05-15T04:06:14.822Z,8.1
2023-05-15T04:07:15.423Z,8.0
2023-05-15T04:08:16.026Z,7.9
2023-05-15T04:09:16.624Z,8.6
2023-05-15T04:10:17.220Z,8.9
2023-05-15T04:11:17.848Z,8.4
2023-05-15T04:12:18.455Z,8.3
2023-05-15T04:13:19.054Z,8.2
2023-05-15T04:14:19.656Z,8.1
2023-05-15T04:15:20.274Z,8.2
2023-05-15T04:16:20.868Z,8.3
2023-05-15T04:17:21.523Z,7.7
2023-05-15T04:18:22.090Z,8.2
2023-05-15T04:19:22.698Z,8.4
2023-05-15T04:20:23.296Z,7.3
2023-05-15T04:21:23.907Z,7.5
2023-05-15T04:22:24.506Z,8.1
2023-05-15T04:23:25.105Z,7.6
2023-05-15T04:24:25.707Z,7.5
2023-05-15T04:25:26.730Z,7.3
2023-05-15T04:26:27.519Z,7.8
2023-05-15T04:27:28.104Z,7.2
2023-05-15T04:28:29.971Z,7.3
2023-05-15T04:29:30.294Z,7.3
2023-05-15T04:30:30.896Z,7.1
2023-05-15T04:31:31.592Z,6.7
2023-05-15T04:32:32.130Z,6.9
2023-05-15T04:33:32.734Z,7.2
2023-05-15T04:34:33.339Z,8.0
2023-05-15T04:35:33.936Z,7.0
2023-05-15T04:36:34.532Z,7.9
2023-05-15T04:37:35.135Z,7.7
2023-05-15T04:38:35.754Z,7.1
2023-05-15T04:39:36.353Z,7.0
2023-05-15T04:40:36.956Z,6.6
2023-05-15T04:41:37.556Z,7.2
2023-05-15T04:42:39.501Z,6.9
2023-05-15T04:43:41.287Z,7.0
2023-05-15T04:44:41.346Z,7.3
2023-05-15T04:45:42.035Z,7.1
2023-05-15T04:46:42.589Z,7.5
2023-05-15T04:47:43.213Z,7.8
2023-05-15T04:48:43.810Z,7.2
2023-05-15T04:49:44.423Z,8.5
2023-05-15T04:50:45.024Z,8.0
2023-05-15T04:51:45.622Z,7.7
2023-05-15T04:52:46.221Z,8.0
2023-05-15T04:53:46.829Z,7.9
2023-05-15T04:54:47.444Z,7.7
2023-05-15T04:55:48.040Z,7.4
2023-05-15T04:56:48.643Z,7.7
2023-05-15T04:57:49.245Z,8.4
2023-05-15T04:58:49.859Z,7.9
2023-05-15T04:59:50.482Z,8.4
2023-05-15T05:00:51.081Z,8.7
2023-05-15T05:01:51.719Z,8.8
2023-05-15T05:02:52.285Z,8.7
2023-05-15T05:03:52.996Z,9.5
2023-05-15T05:04:53.515Z,9.5
2023-05-15T05:05:54.126Z,10.5
2023-05-15T05:06:54.731Z,10.4
2023-05-15T05:07:55.353Z,10.5
2023-05-15T05:08:55.955Z,11.2
2023-05-15T05:09:56.557Z,11.1
2023-05-15T05:10:57.164Z,12.4
2023-05-15T05:11:57.792Z,12.5
2023-05-15T05:12:58.389Z,12.9
2023-05-15T05:13:58.995Z,12.6
2023-05-15T05:14:59.628Z,13.1
2023-05-15T05:16:00.286Z,13.5
2023-05-15T05:17:00.836Z,13.3
2023-05-15T05:18:01.507Z,13.3
2023-05-15T05:19:02.118Z,12.9
2023-05-15T05:20:02.690Z,12.7
2023-05-15T05:21:03.290Z,13.0
2023-05-15T05:22:03.893Z,12.2
2023-05-15T05:23:04.496Z,12.5
2023-05-15T05:24:05.102Z,12.8
2023-05-15T05:25:05.704Z,12.9
2023-05-15T05:26:06.392Z,11.3
2023-05-15T05:27:06.950Z,10.9
2023-05-15T05:28:07.544Z,10.8
2023-05-15T05:29:08.146Z,10.9
2023-05-15T05:30:08.813Z,9.7
2023-05-15T05:31:09.452Z,9.7
2023-05-15T05:32:10.087Z,9.3
2023-05-15T05:33:10.740Z,9.1
2023-05-15T05:34:11.335Z,8.1
2023-05-15T05:35:11.925Z,7.9
2023-05-15T05:36:12.522Z,7.8
2023-05-15T05:37:13.151Z,7.4
2023-05-15T05:38:13.778Z,7.5
2023-05-15T05:39:14.364Z,7.2
2023-05-15T05:40:14.964Z,6.9
2023-05-15T05:41:15.583Z,6.9
2023-05-15T05:42:16.182Z,7.1
2023-05-15T05:43:16.783Z,6.3
2023-05-15T05:44:17.380Z,6.8
2023-05-15T05:45:17.988Z,7.1
2023-05-15T05:46:18.643Z,6.7
2023-05-15T05:47:19.214Z,6.1
2023-05-15T05:48:19.812Z,6.5
2023-05-15T05:49:20.412Z,6.1
2023-05-15T05:50:21.014Z,5.9
2023-05-15T05:51:21.610Z,6.4
2023-05-15T05:52:22.217Z,5.8
2023-05-15T05:53:22.836Z,5.8
2023-05-15T05:54:23.462Z,6.9
2023-05-15T05:55:24.186Z,6.2
2023-05-15T05:56:24.671Z,5.6
2023-05-15T05:57:25.291Z,5.8
2023-05-15T05:58:26.421Z,5.7
2023-05-15T05:59:27.106Z,6.3
2023-05-15T06:00:27.708Z,5.9
2023-05-15T06:01:28.308Z,6.5
2023-05-15T06:02:29.055Z,5.7
2023-05-15T06:03:29.628Z,7.0
2023-05-15T06:04:30.368Z,6.3
2023-05-15T06:05:30.868Z,6.5
2023-05-15T06:06:31.491Z,6.5
2023-05-15T06:07:32.087Z,6.4
2023-05-15T06:08:32.690Z,6.4
2023-05-15T06:09:33.308Z,5.6
2023-05-15T06:10:33.911Z,7.0
2023-05-15T06:11:34.541Z,5.9
2023-05-15T06:12:35.113Z,5.9
2023-05-15T06:13:35.707Z,6.4
2023-05-15T06:14:36.313Z,5.8
2023-05-15T06:15:36.907Z,5.3
2023-05-15T06:16:37.543Z,5.5
2023-05-15T06:17:38.176Z,5.6
2023-05-15T06:18:38.778Z,5.4
2023-05-15T06:19:39.335Z,5.6
2023-05-15T06:20:39.962Z,5.5
2023-05-15T06:21:40.564Z,5.2
2023-05-15T06:22:41.180Z,5.2
2023-05-15T06:23:41.782Z,5.9
2023-05-15T06:24:42.379Z,5.1
2023-05-15T06:25:42.988Z,4.3
2023-05-15T06:26:43.612Z,5.0
2023-05-15T06:27:44.218Z,5.1
2023-05-15T06:28:44.813Z,5.0
2023-05-15T06:29:45.411Z,5.5
2023-05-15T06:30:46.062Z,5.3
2023-05-15T06:31:46.631Z,5.5
2023-05-15T06:32:47.382Z,5.3
2023-05-15T06:33:47.994Z,4.7
2023-05-15T06:34:48.656Z,5.0
2023-05-15T06:35:49.245Z,4.6
2023-05-15T06:36:49.836Z,4.8
2023-05-15T06:37:50.480Z,4.6
2023-05-15T06:38:51.061Z,5.4
2023-05-15T06:39:51.679Z,4.8
2023-05-15T06:40:52.262Z,4.4
2023-05-15T06:41:52.887Z,4.7
2023-05-15T06:42:53.468Z,4.6
2023-05-15T06:43:54.090Z,4.7
2023-05-15T06:44:54.694Z,5.0
2023-05-15T06:45:55.301Z,4.9
2023-05-15T06:46:56.022Z,4.6
2023-05-15T06:47:59.227Z,4.4
2023-05-15T06:48:58.246Z,4.8
2023-05-15T06:49:58.852Z,4.8
2023-05-15T06:50:59.475Z,5.5
2023-05-15T06:52:00.080Z,4.8
2023-05-15T06:53:00.682Z,4.8
2023-05-15T06:54:01.285Z,4.8
2023-05-15T06:55:01.990Z,4.9
2023-05-15T06:56:02.503Z,5.1
2023-05-15T06:57:03.122Z,5.1
2023-05-15T06:58:03.724Z,5.0
2023-05-15T06:59:04.325Z,5.3
2023-05-15T07:00:04.932Z,5.9
2023-05-15T07:01:05.530Z,5.8
2023-05-15T07:02:06.215Z,5.3
2023-05-15T07:03:06.811Z,5.4
2023-05-15T07:04:07.868Z,6.2
2023-05-15T07:05:08.625Z,6.3
2023-05-15T07:06:09.103Z,6.3
2023-05-15T07:07:09.734Z,6.6
2023-05-15T07:08:10.345Z,7.0
2023-05-15T07:09:10.950Z,6.2
2023-05-15T07:10:11.569Z,6.5
2023-05-15T07:11:12.168Z,6.6
2023-05-15T07:12:12.790Z,6.5
2023-05-15T07:13:13.414Z,6.6
2023-05-15T07:14:14.030Z,7.1
2023-05-15T07:15:14.632Z,6.2
2023-05-15T07:16:15.237Z,6.9
2023-05-15T07:17:15.860Z,7.2
2023-05-15T07:18:16.497Z,7.5
2023-05-15T07:19:17.333Z,7.6
2023-05-15T07:20:17.899Z,7.0
2023-05-15T07:21:18.501Z,7.2
2023-05-15T07:22:19.106Z,7.1
2023-05-15T07:23:19.712Z,7.3
2023-05-15T07:24:20.336Z,7.2
2023-05-15T07:25:20.952Z,7.0
2023-05-15T07:26:32.428Z,7.2
2023-05-15T07:27:23.157Z,7.2
2023-05-15T07:28:23.757Z,7.3
2023-05-15T07:29:24.354Z,7.3
2023-05-15T07:30:25.194Z,7.4
2023-05-15T07:31:25.972Z,7.5
2023-05-15T07:32:26.610Z,7.2
2023-05-15T07:33:27.179Z,7.7
2023-05-15T07:34:27.783Z,7.7
2023-05-15T07:35:28.624Z,8.0
2023-05-15T07:36:29.018Z,7.9
2023-05-15T07:37:29.617Z,7.8
2023-05-15T07:38:30.223Z,8.3
2023-05-15T07:39:30.848Z,8.4
2023-05-15T07:40:31.447Z,8.2
2023-05-15T07:41:32.050Z,8.3
2023-05-15T07:42:32.653Z,8.1
2023-05-15T07:43:33.259Z,8.9
2023-05-15T07:44:33.873Z,8.6
2023-05-15T07:45:34.557Z,9.1
2023-05-15T07:46:35.384Z,8.2
2023-05-15T07:47:36.169Z,8.6
2023-05-15T07:48:36.724Z,8.3
2023-05-15T07:49:37.350Z,8.6
2023-05-15T07:50:37.950Z,8.9
2023-05-15T07:51:38.577Z,8.8
2023-05-15T07:52:39.181Z,8.7
2023-05-15T07:53:39.794Z,8.2
2023-05-15T07:54:40.395Z,8.1
2023-05-15T07:55:41.000Z,8.6
2023-05-15T07:56:41.620Z,8.2
2023-05-15T07:57:42.204Z,8.1
2023-05-15T07:58:42.846Z,8.7
2023-05-15T07:59:43.445Z,8.7
2023-05-15T08:00:44.041Z,9.2
2023-05-15T08:01:44.651Z,9.4
2023-05-15T08:02:45.339Z,9.1
2023-05-15T08:03:46.004Z,9.1
2023-05-15T08:04:46.700Z,9.2
2023-05-15T08:05:47.300Z,9.3
2023-05-15T08:06:47.915Z,8.9
2023-05-15T08:07:48.528Z,8.8
2023-05-15T08:08:49.128Z,9.0
2023-05-15T08:09:49.739Z,8.9
2023-05-15T08:10:50.336Z,9.3
2023-05-15T08:11:50.938Z,9.2
2023-05-15T08:12:51.579Z,8.6
2023-05-15T08:13:52.208Z,9.5
2023-05-15T08:14:52.765Z,9.6
2023-05-15T08:15:53.427Z,8.5
2023-05-15T08:16:53.994Z,8.4
2023-05-15T08:17:54.710Z,8.6
2023-05-15T08:18:55.374Z,8.7
2023-05-15T08:19:55.950Z,9.4
2023-05-15T08:20:56.579Z,9.0
2023-05-15T08:21:57.159Z,8.3
2023-05-15T08:22:57.760Z,8.9
2023-05-15T08:23:58.398Z,9.1
2023-05-15T08:24:58.963Z,8.3
2023-05-15T08:25:59.569Z,9.1
2023-05-15T08:27:00.196Z,8.8
2023-05-15T08:28:00.792Z,9.2
2023-05-15T08:29:01.466Z,8.4
2023-05-15T08:30:02.115Z,8.4
2023-05-15T08:31:02.774Z,9.0
2023-05-15T08:32:03.350Z,8.5
2023-05-15T08:33:04.008Z,8.8
2023-05-15T08:34:04.577Z,9.0
2023-05-15T08:35:05.185Z,8.3
2023-05-15T08:36:06.026Z,8.8
2023-05-15T08:37:06.546Z,8.7
2023-05-15T08:38:07.129Z,8.6
2023-05-15T08:39:07.731Z,8.5
2023-05-15T08:40:08.350Z,8.6
2023-05-15T08:41:08.973Z,9.2
2023-05-15T08:42:09.581Z,10.2
2023-05-15T08:43:10.201Z,9.5
2023-05-15T08:44:10.822Z,8.7
2023-05-15T08:45:11.447Z,8.9
2023-05-15T08:46:12.054Z,8.5
2023-05-15T08:47:12.675Z,9.4
2023-05-15T08:48:13.322Z,8.7
2023-05-15T08:49:14.000Z,8.5
2023-05-15T08:50:14.687Z,8.3
2023-05-15T08:51:15.261Z,9.1
2023-05-15T08:52:15.857Z,8.5
2023-05-15T08:53:16.494Z,8.7
2023-05-15T08:54:17.150Z,8.8
2023-05-15T08:55:17.750Z,8.7
2023-05-15T08:56:18.346Z,8.2
2023-05-15T08:57:18.951Z,8.3
2023-05-15T08:58:19.551Z,8.5
2023-05-15T08:59:20.150Z,8.7
2023-05-15T09:00:20.754Z,8.8
2023-05-15T09:01:21.376Z,8.6
2023-05-15T09:02:21.971Z,7.8
2023-05-15T09:03:22.703Z,8.1
2023-05-15T09:04:23.196Z,9.1
2023-05-15T09:05:23.936Z,8.2
2023-05-15T09:06:24.594Z,8.9
2023-05-15T09:07:25.214Z,8.9
2023-05-15T09:08:25.819Z,9.2
2023-05-15T09:09:26.442Z,9.9
2023-05-15T09:10:27.065Z,11.3
2023-05-15T09:11:27.650Z,10.5
2023-05-15T09:12:28.269Z,10.3
2023-05-15T09:13:28.880Z,11.1
2023-05-15T09:14:29.491Z,11.2
2023-05-15T09:15:30.092Z,10.5
2023-05-15T09:16:30.762Z,11.0
2023-05-15T09:17:31.349Z,11.3
2023-05-15T09:18:31.952Z,12.1
2023-05-15T09:19:32.561Z,11.6
2023-05-15T09:20:33.182Z,11.2
2023-05-15T09:21:33.798Z,13.6
2023-05-15T09:22:34.422Z,13.7
2023-05-15T09:23:35.014Z,12.9
2023-05-15T09:24:35.618Z,12.6
2023-05-15T09:25:36.221Z,13.2
2023-05-15T09:26:36.829Z,13.3
2023-05-15T09:27:37.432Z,12.8
2023-05-15T09:28:38.037Z,13.6
2023-05-15T09:29:38.644Z,12.2
2023-05-15T09:30:39.294Z,13.6
2023-05-15T09:31:39.925Z,12.5
2023-05-15T09:32:40.527Z,13.3
2023-05-15T09:33:41.111Z,13.0
2023-05-15T09:34:41.732Z,13.3
2023-05-15T09:35:42.338Z,14.7
2023-05-15T09:36:42.958Z,14.3
2023-05-15T09:37:43.551Z,14.0
2023-05-15T09:38:44.159Z,15.0
2023-05-15T09:39:44.788Z,14.4
2023-05-15T09:40:45.404Z,13.1
2023-05-15T09:41:46.008Z,12.7
2023-05-15T09:42:46.632Z,12.7
2023-05-15T09:43:47.220Z,12.6
2023-05-15T09:44:47.825Z,12.3
2023-05-15T09:45:48.548Z,12.4
2023-05-15T09:46:49.210Z,12.5
2023-05-15T09:47:49.863Z,11.9
2023-05-15T09:48:50.463Z,13.0
2023-05-15T09:49:51.085Z,13.5
2023-05-15T09:50:51.686Z,13.3
2023-05-15T09:51:52.306Z,14.9
2023-05-15T09:52:52.922Z,14.2
2023-05-15T09:53:53.521Z,14.3
2023-05-15T09:54:54.129Z,15.2
2023-05-15T09:55:54.752Z,14.5
2023-05-15T09:56:55.356Z,15.1
2023-05-15T09:57:55.960Z,14.5
2023-05-15T09:58:56.604Z,13.0
2023-05-15T09:59:57.199Z,13.2
2023-05-15T10:00:57.799Z,13.5
2023-05-15T10:01:58.532Z,13.8
2023-05-15T10:02:59.126Z,14.8
2023-05-15T10:03:59.777Z,15.0
2023-05-15T10:05:00.572Z,15.1
2023-05-15T10:06:01.050Z,13.9
2023-05-15T10:07:01.620Z,13.3
2023-05-15T10:08:02.241Z,14.9
2023-05-15T10:09:02.831Z,15.4
2023-05-15T10:10:03.464Z,14.1
2023-05-15T10:11:04.180Z,15.0
2023-05-15T10:12:04.741Z,16.0
2023-05-15T10:13:05.379Z,16.6
2023-05-15T10:14:05.973Z,14.7
2023-05-15T10:15:06.576Z,15.2
2023-05-15T10:16:07.234Z,15.5
2023-05-15T10:17:07.820Z,14.3
2023-05-15T10:18:08.487Z,15.0
2023-05-15T10:19:09.181Z,14.8
2023-05-15T10:20:09.751Z,13.4
2023-05-15T10:21:10.358Z,13.5
2023-05-15T10:22:10.962Z,13.7
2023-05-15T10:23:11.587Z,13.5
2023-05-15T10:24:12.192Z,14.4
2023-05-15T10:25:12.800Z,15.1
2023-05-15T10:26:13.405Z,13.2
2023-05-15T10:27:14.015Z,14.7
2023-05-15T10:28:14.618Z,14.9
2023-05-15T10:29:15.231Z,14.5
2023-05-15T10:30:15.862Z,14.6
2023-05-15T10:31:16.458Z,14.8
2023-05-15T10:32:17.073Z,14.4
2023-05-15T10:33:17.649Z,14.5
2023-05-15T10:34:18.263Z,13.9
2023-05-15T10:35:18.867Z,14.4
2023-05-15T10:36:19.487Z,16.2
2023-05-15T10:37:20.092Z,16.5
2023-05-15T10:38:20.696Z,14.6
2023-05-15T10:39:21.305Z,15.2
2023-05-15T10:40:21.932Z,15.4
2023-05-15T10:41:22.544Z,15.9
2023-05-15T10:42:23.141Z,14.9
2023-05-15T10:43:23.748Z,15.5
2023-05-15T10:44:24.352Z,16.2
2023-05-15T10:45:24.964Z,17.1
2023-05-15T10:46:25.620Z,16.8
2023-05-15T10:47:26.259Z,16.5
2023-05-15T10:48:26.824Z,13.7
2023-05-15T10:49:27.448Z,13.5
2023-05-15T10:50:28.140Z,12.8
2023-05-15T10:51:28.772Z,13.0
2023-05-15T10:52:29.375Z,13.6
2023-05-15T10:53:30.024Z,13.0
2023-05-15T10:54:30.625Z,13.1
2023-05-15T10:55:31.280Z,14.1
2023-05-15T10:56:32.015Z,15.0
2023-05-15T10:57:32.669Z,15.3
2023-05-15T10:58:33.290Z,15.4
2023-05-15T10:59:33.905Z,14.0
2023-05-15T11:00:34.530Z,14.1
2023-05-15T11:01:35.446Z,14.6
2023-05-15T11:02:36.118Z,14.0
2023-05-15T11:03:48.105Z,13.9
2023-05-15T11:04:37.393Z,14.7
2023-05-15T11:05:37.958Z,13.7
2023-05-15T11:06:38.565Z,13.1
2023-05-15T11:07:39.190Z,13.1
2023-05-15T11:08:39.798Z,13.2
2023-05-15T11:09:40.478Z,12.9
2023-05-15T11:10:41.040Z,12.8
2023-05-15T11:11:41.664Z,11.6
2023-05-15T11:12:42.264Z,11.3
2023-05-15T11:13:42.869Z,11.9
2023-05-15T11:14:43.494Z,11.5
2023-05-15T11:15:44.131Z,11.3
2023-05-15T11:16:44.744Z,10.7
2023-05-15T11:17:45.375Z,11.5
2023-05-15T11:18:45.999Z,12.0
2023-05-15T11:19:46.553Z,12.8
2023-05-15T11:20:47.158Z,11.6
2023-05-15T11:21:47.766Z,11.7
2023-05-15T11:22:48.391Z,10.3
2023-05-15T11:23:49.001Z,10.6
2023-05-15T11:24:49.605Z,12.1
2023-05-15T11:25:50.210Z,12.2
2023-05-15T11:26:50.814Z,10.7
2023-05-15T11:27:51.427Z,10.9
2023-05-15T11:28:52.027Z,10.9
2023-05-15T11:29:52.678Z,11.2
2023-05-15T11:30:53.335Z,10.9
2023-05-15T11:31:53.888Z,10.4
2023-05-15T11:32:54.563Z,10.2
2023-05-15T11:33:55.130Z,10.0
2023-05-15T11:34:55.758Z,9.6
2023-05-15T11:35:56.388Z,10.7
2023-05-15T11:36:56.988Z,9.8
2023-05-15T11:37:57.607Z,9.7
2023-05-15T11:38:58.220Z,9.0
2023-05-15T11:39:58.828Z,9.3
2023-05-15T11:40:59.429Z,8.9
2023-05-15T11:42:01.080Z,8.9
2023-05-15T11:43:00.707Z,8.1
2023-05-15T11:44:01.300Z,7.1
2023-05-15T11:45:01.913Z,8.2
2023-05-15T11:46:02.554Z,9.2
2023-05-15T11:47:03.123Z,9.8
2023-05-15T11:48:03.747Z,9.9
2023-05-15T11:49:04.328Z,8.9
2023-05-15T11:50:04.930Z,8.0
2023-05-15T11:51:05.559Z,8.3
2023-05-15T11:52:06.136Z,8.2
2023-05-15T11:53:06.746Z,7.4
2023-05-15T11:54:08.160Z,6.3
2023-05-15T11:55:08.720Z,6.9
2023-05-15T11:56:09.317Z,7.4
2023-05-15T11:57:09.932Z,8.0
2023-05-15T11:58:10.529Z,7.3
2023-05-15T11:59:11.140Z,7.2
2023-05-15T12:00:11.852Z,6.5
2023-05-15T12:01:12.425Z,6.4
2023-05-15T12:02:13.035Z,6.8
2023-05-15T12:03:13.701Z,7.8
2023-05-15T12:04:14.367Z,7.3
2023-05-15T12:05:15.349Z,7.6
2023-05-15T12:06:15.923Z,9.8
2023-05-15T12:07:16.518Z,8.7
2023-05-15T12:08:17.122Z,9.5
2023-05-15T12:09:17.731Z,9.3
2023-05-15T12:10:18.352Z,8.3
2023-05-15T12:11:18.978Z,9.3
2023-05-15T12:12:19.599Z,9.0
2023-05-15T12:13:20.189Z,9.1
2023-05-15T12:14:20.808Z,8.9
2023-05-15T12:15:21.421Z,9.3
2023-05-15T12:16:22.080Z,8.1
2023-05-15T12:17:22.671Z,8.7
2023-05-15T12:18:23.267Z,7.5
2023-05-15T12:19:24.000Z,6.8
2023-05-15T12:20:24.751Z,7.8
2023-05-15T12:21:25.502Z,7.6
2023-05-15T12:22:26.127Z,8.8
2023-05-15T12:23:26.793Z,10.2
2023-05-15T12:24:27.367Z,10.2
2023-05-15T12:25:27.969Z,10.3
2023-05-15T12:26:28.583Z,11.2
2023-05-15T12:27:29.181Z,12.5
2023-05-15T12:28:29.796Z,14.3
2023-05-15T12:29:30.391Z,14.2
2023-05-15T12:30:30.999Z,15.3
2023-05-15T12:31:31.622Z,15.2
2023-05-15T12:32:32.255Z,15.3
2023-05-15T12:33:32.821Z,15.1
2023-05-15T12:34:33.427Z,14.4
2023-05-15T12:35:34.024Z,13.0
2023-05-15T12:36:34.639Z,12.9
2023-05-15T12:37:35.235Z,10.6
2023-05-15T12:38:35.838Z,11.3
2023-05-15T12:39:36.446Z,14.6
2023-05-15T12:40:37.048Z,14.0
2023-05-15T12:41:37.662Z,14.0
2023-05-15T12:42:38.281Z,13.8
2023-05-15T12:43:38.897Z,13.8
2023-05-15T12:44:39.488Z,10.8
2023-05-15T12:45:40.141Z,11.3
2023-05-15T12:46:40.735Z,12.6
2023-05-15T12:47:41.301Z,15.2
2023-05-15T12:48:41.910Z,16.0
2023-05-15T12:49:42.504Z,16.9
2023-05-15T12:50:43.108Z,17.0
2023-05-15T12:51:43.732Z,17.3
2023-05-15T12:52:44.334Z,15.4
2023-05-15T12:53:44.940Z,16.7
2023-05-15T12:54:45.542Z,17.7
2023-05-15T12:55:46.176Z,17.0
2023-05-15T12:56:46.774Z,16.9
2023-05-15T12:57:47.401Z,16.2
2023-05-15T12:58:48.017Z,16.3
2023-05-15T12:59:48.605Z,16.1
2023-05-15T13:00:49.200Z,16.9
2023-05-15T13:01:49.899Z,16.6
2023-05-15T13:02:50.600Z,15.4
2023-05-15T13:03:51.380Z,16.7
2023-05-15T13:04:52.114Z,16.4
2023-05-15T13:05:52.726Z,15.1
2023-05-15T13:06:53.343Z,14.3
2023-05-15T13:07:53.951Z,14.0
2023-05-15T13:08:54.555Z,13.8
2023-05-15T13:09:55.177Z,12.6
2023-05-15T13:10:55.791Z,12.1
2023-05-15T13:11:56.400Z,12.4
2023-05-15T13:12:57.041Z,12.4
2023-05-15T13:13:57.622Z,13.5
2023-05-15T13:14:58.226Z,13.2
2023-05-15T13:15:58.846Z,13.4
2023-05-15T13:16:59.433Z,12.4
2023-05-15T13:18:00.076Z,11.8
2023-05-15T13:19:00.763Z,11.4
2023-05-15T13:20:01.374Z,10.8
2023-05-15T13:21:01.959Z,11.4
2023-05-15T13:22:02.574Z,10.8
2023-05-15T13:23:03.168Z,9.2
2023-05-15T13:24:03.879Z,8.8
2023-05-15T13:25:04.473Z,9.0
2023-05-15T13:26:05.077Z,8.5
2023-05-15T13:27:05.679Z,8.1
2023-05-15T13:28:06.286Z,9.1
2023-05-15T13:29:06.887Z,9.3
2023-05-15T13:30:07.572Z,9.0
2023-05-15T13:31:08.222Z,8.8
2023-05-15T13:32:08.727Z,8.8
2023-05-15T13:33:09.386Z,8.6
2023-05-15T13:34:09.949Z,8.6
2023-05-15T13:35:10.556Z,8.8
2023-05-15T13:36:36.842Z,7.8
2023-05-15T13:37:37.434Z,8.0
2023-05-15T13:38:38.045Z,6.8
2023-05-15T13:39:38.661Z,7.2
2023-05-15T13:40:39.313Z,7.2
2023-05-15T13:41:39.928Z,6.8
2023-05-15T13:42:40.537Z,7.0
2023-05-15T13:43:41.126Z,7.2
2023-05-15T13:44:41.732Z,7.0
2023-05-15T13:45:42.371Z,7.6
2023-05-15T13:46:43.022Z,8.8
2023-05-15T13:47:43.688Z,7.9